sensor_id;sensor_type;location;lat;lon;timestamp;P1;durP1;ratioP1;P2;durP2;ratioP2
17424;SDS011;8830;50.978;5.058;2023-03-01T00:02:06;7.90;;;5.57;;
17424;SDS011;8830;50.978;5.058;2023-03-01T00:04:35;6.87;;;6.17;;
17424;SDS011;8830;50.978;5.058;2023-03-01T00:07:02;6.30;;;5.70;;
17424;SDS011;8830;50.978;5.058;2023-03-01T00:09:30;6.13;;;5.53;;
17424;SDS011;8830;50.978;5.058;2023-03-01T00:11:57;5.60;;;5.20;;
17424;SDS011;8830;50.978;5.058;2023-03-01T00:14:25;7.60;;;5.83;;
17424;SDS011;8830;50.978;5.058;2023-03-01T00:16:52;6.20;;;5.63;;
17424;SDS011;8830;50.978;5.058;2023-03-01T00:19:19;7.03;;;5.73;;
17424;SDS011;8830;50.978;5.058;2023-03-01T00:21:48;6.40;;;5.80;;
17424;SDS011;8830;50.978;5.058;2023-03-01T00:24:15;6.30;;;5.70;;
17424;SDS011;8830;50.978;5.058;2023-03-01T00:26:42;5.63;;;5.13;;
17424;SDS011;8830;50.978;5.058;2023-03-01T00:29:09;7.50;;;6.03;;
17424;SDS011;8830;50.978;5.058;2023-03-01T00:31:36;6.10;;;5.50;;
17424;SDS011;8830;50.978;5.058;2023-03-01T00:34:04;6.50;;;5.90;;
17424;SDS011;8830;50.978;5.058;2023-03-01T00:36:33;5.90;;;5.30;;
17424;SDS011;8830;50.978;5.058;2023-03-01T00:39:02;8.07;;;5.80;;
17424;SDS011;8830;50.978;5.058;2023-03-01T00:41:30;9.43;;;5.97;;
17424;SDS011;8830;50.978;5.058;2023-03-01T00:43:59;11.73;;;6.70;;
17424;SDS011;8830;50.978;5.058;2023-03-01T00:46:26;7.33;;;6.27;;
17424;SDS011;8830;50.978;5.058;2023-03-01T00:48:55;8.33;;;6.87;;
17424;SDS011;8830;50.978;5.058;2023-03-01T00:51:23;13.00;;;7.47;;
17424;SDS011;8830;50.978;5.058;2023-03-01T00:53:52;7.80;;;7.10;;
17424;SDS011;8830;50.978;5.058;2023-03-01T00:56:23;9.27;;;7.37;;
17424;SDS011;8830;50.978;5.058;2023-03-01T00:58:50;13.23;;;7.80;;
17424;SDS011;8830;50.978;5.058;2023-03-01T01:01:18;8.10;;;7.40;;
17424;SDS011;8830;50.978;5.058;2023-03-01T01:03:46;9.43;;;7.10;;
17424;SDS011;8830;50.978;5.058;2023-03-01T01:06:14;10.57;;;8.03;;
17424;SDS011;8830;50.978;5.058;2023-03-01T01:08:45;8.17;;;7.30;;
17424;SDS011;8830;50.978;5.058;2023-03-01T01:11:13;8.33;;;6.57;;
17424;SDS011;8830;50.978;5.058;2023-03-01T01:13:41;8.47;;;7.67;;
17424;SDS011;8830;50.978;5.058;2023-03-01T01:16:10;8.80;;;7.57;;
17424;SDS011;8830;50.978;5.058;2023-03-01T01:18:37;8.43;;;7.20;;
17424;SDS011;8830;50.978;5.058;2023-03-01T01:21:06;11.03;;;7.20;;
17424;SDS011;8830;50.978;5.058;2023-03-01T01:23:34;8.87;;;7.97;;
17424;SDS011;8830;50.978;5.058;2023-03-01T01:26:04;11.20;;;7.57;;
17424;SDS011;8830;50.978;5.058;2023-03-01T01:28:32;12.53;;;7.37;;
17424;SDS011;8830;50.978;5.058;2023-03-01T01:31:00;8.87;;;7.60;;
17424;SDS011;8830;50.978;5.058;2023-03-01T01:33:27;9.07;;;7.27;;
17424;SDS011;8830;50.978;5.058;2023-03-01T01:35:54;10.87;;;7.33;;
17424;SDS011;8830;50.978;5.058;2023-03-01T01:38:21;9.10;;;7.30;;
17424;SDS011;8830;50.978;5.058;2023-03-01T01:40:49;10.33;;;7.27;;
17424;SDS011;8830;50.978;5.058;2023-03-01T01:43:18;9.10;;;7.17;;
17424;SDS011;8830;50.978;5.058;2023-03-01T01:45:48;12.17;;;8.03;;
17424;SDS011;8830;50.978;5.058;2023-03-01T01:48:19;11.67;;;7.80;;
17424;SDS011;8830;50.978;5.058;2023-03-01T01:50:50;10.77;;;7.33;;
17424;SDS011;8830;50.978;5.058;2023-03-01T01:53:21;8.53;;;7.73;;
17424;SDS011;8830;50.978;5.058;2023-03-01T01:55:51;9.07;;;7.27;;
17424;SDS011;8830;50.978;5.058;2023-03-01T01:58:22;7.97;;;7.17;;
17424;SDS011;8830;50.978;5.058;2023-03-01T02:00:51;12.23;;;7.70;;
17424;SDS011;8830;50.978;5.058;2023-03-01T02:03:21;7.83;;;7.07;;
17424;SDS011;8830;50.978;5.058;2023-03-01T02:05:55;10.83;;;8.30;;
17424;SDS011;8830;50.978;5.058;2023-03-01T02:08:28;11.07;;;8.00;;
17424;SDS011;8830;50.978;5.058;2023-03-01T02:10:57;8.07;;;7.27;;
17424;SDS011;8830;50.978;5.058;2023-03-01T02:13:25;7.50;;;6.80;;
17424;SDS011;8830;50.978;5.058;2023-03-01T02:15:53;8.63;;;7.80;;
17424;SDS011;8830;50.978;5.058;2023-03-01T02:18:22;8.27;;;7.40;;
17424;SDS011;8830;50.978;5.058;2023-03-01T02:21:01;8.00;;;7.20;;
17424;SDS011;8830;50.978;5.058;2023-03-01T02:23:36;10.07;;;7.83;;
17424;SDS011;8830;50.978;5.058;2023-03-01T02:26:05;8.23;;;7.47;;
17424;SDS011;8830;50.978;5.058;2023-03-01T02:28:38;9.83;;;7.70;;
17424;SDS011;8830;50.978;5.058;2023-03-01T02:31:08;8.40;;;7.33;;
17424;SDS011;8830;50.978;5.058;2023-03-01T02:33:54;10.90;;;7.83;;
17424;SDS011;8830;50.978;5.058;2023-03-01T02:36:22;8.27;;;7.47;;
17424;SDS011;8830;50.978;5.058;2023-03-01T02:38:55;8.67;;;7.87;;
17424;SDS011;8830;50.978;5.058;2023-03-01T02:41:25;10.60;;;8.27;;
17424;SDS011;8830;50.978;5.058;2023-03-01T02:43:55;9.03;;;8.03;;
17424;SDS011;8830;50.978;5.058;2023-03-01T02:46:23;9.77;;;8.77;;
17424;SDS011;8830;50.978;5.058;2023-03-01T02:48:53;8.43;;;7.67;;
17424;SDS011;8830;50.978;5.058;2023-03-01T02:51:26;9.40;;;8.50;;
17424;SDS011;8830;50.978;5.058;2023-03-01T02:54:10;12.20;;;8.40;;
17424;SDS011;8830;50.978;5.058;2023-03-01T02:56:44;10.73;;;8.33;;
17424;SDS011;8830;50.978;5.058;2023-03-01T02:59:16;9.77;;;8.80;;
17424;SDS011;8830;50.978;5.058;2023-03-01T03:01:46;12.20;;;8.40;;
17424;SDS011;8830;50.978;5.058;2023-03-01T03:04:14;9.50;;;8.60;;
17424;SDS011;8830;50.978;5.058;2023-03-01T03:06:43;10.57;;;8.50;;
17424;SDS011;8830;50.978;5.058;2023-03-01T03:09:10;9.73;;;8.80;;
17424;SDS011;8830;50.978;5.058;2023-03-01T03:11:38;8.63;;;7.87;;
17424;SDS011;8830;50.978;5.058;2023-03-01T03:14:05;11.70;;;9.10;;
17424;SDS011;8830;50.978;5.058;2023-03-01T03:16:40;14.93;;;8.57;;
17424;SDS011;8830;50.978;5.058;2023-03-01T03:19:08;21.87;;;9.50;;
17424;SDS011;8830;50.978;5.058;2023-03-01T03:21:35;12.20;;;9.90;;
17424;SDS011;8830;50.978;5.058;2023-03-01T03:24:02;9.43;;;8.53;;
17424;SDS011;8830;50.978;5.058;2023-03-01T03:26:29;13.37;;;9.50;;
17424;SDS011;8830;50.978;5.058;2023-03-01T03:28:56;11.77;;;10.60;;
17424;SDS011;8830;50.978;5.058;2023-03-01T03:31:23;10.23;;;9.03;;
17424;SDS011;8830;50.978;5.058;2023-03-01T03:33:52;13.27;;;9.70;;
17424;SDS011;8830;50.978;5.058;2023-03-01T03:36:20;14.13;;;9.90;;
17424;SDS011;8830;50.978;5.058;2023-03-01T03:38:48;12.10;;;9.57;;
17424;SDS011;8830;50.978;5.058;2023-03-01T03:41:15;11.03;;;9.77;;
17424;SDS011;8830;50.978;5.058;2023-03-01T03:43:43;10.70;;;9.60;;
17424;SDS011;8830;50.978;5.058;2023-03-01T03:46:10;10.13;;;9.17;;
17424;SDS011;8830;50.978;5.058;2023-03-01T03:48:39;10.50;;;8.90;;
17424;SDS011;8830;50.978;5.058;2023-03-01T03:51:11;10.50;;;9.30;;
17424;SDS011;8830;50.978;5.058;2023-03-01T03:53:38;12.73;;;9.00;;
17424;SDS011;8830;50.978;5.058;2023-03-01T03:56:06;11.03;;;9.07;;
17424;SDS011;8830;50.978;5.058;2023-03-01T03:58:33;17.87;;;9.43;;
17424;SDS011;8830;50.978;5.058;2023-03-01T04:01:00;10.30;;;8.87;;
17424;SDS011;8830;50.978;5.058;2023-03-01T04:03:29;10.17;;;8.53;;
17424;SDS011;8830;50.978;5.058;2023-03-01T04:05:58;15.00;;;9.13;;
17424;SDS011;8830;50.978;5.058;2023-03-01T04:08:28;25.40;;;9.50;;
17424;SDS011;8830;50.978;5.058;2023-03-01T04:10:57;9.13;;;8.37;;
17424;SDS011;8830;50.978;5.058;2023-03-01T04:13:45;18.33;;;9.73;;
17424;SDS011;8830;50.978;5.058;2023-03-01T04:16:12;11.63;;;9.40;;
17424;SDS011;8830;50.978;5.058;2023-03-01T04:18:39;9.93;;;9.00;;
17424;SDS011;8830;50.978;5.058;2023-03-01T04:21:06;9.83;;;8.87;;
17424;SDS011;8830;50.978;5.058;2023-03-01T04:23:34;11.47;;;9.90;;
17424;SDS011;8830;50.978;5.058;2023-03-01T04:26:01;11.00;;;8.97;;
17424;SDS011;8830;50.978;5.058;2023-03-01T04:28:29;9.63;;;8.83;;
17424;SDS011;8830;50.978;5.058;2023-03-01T04:30:58;12.00;;;9.00;;
17424;SDS011;8830;50.978;5.058;2023-03-01T04:33:29;10.93;;;8.97;;
17424;SDS011;8830;50.978;5.058;2023-03-01T04:35:56;10.77;;;9.17;;
17424;SDS011;8830;50.978;5.058;2023-03-01T04:38:23;11.57;;;9.20;;
17424;SDS011;8830;50.978;5.058;2023-03-01T04:40:51;8.90;;;8.00;;
17424;SDS011;8830;50.978;5.058;2023-03-01T04:43:18;9.70;;;8.60;;
17424;SDS011;8830;50.978;5.058;2023-03-01T04:45:45;9.40;;;8.33;;
17424;SDS011;8830;50.978;5.058;2023-03-01T04:48:13;11.83;;;9.17;;
17424;SDS011;8830;50.978;5.058;2023-03-01T04:50:40;9.07;;;8.03;;
17424;SDS011;8830;50.978;5.058;2023-03-01T04:53:08;10.37;;;8.73;;
17424;SDS011;8830;50.978;5.058;2023-03-01T04:55:35;11.03;;;8.50;;
17424;SDS011;8830;50.978;5.058;2023-03-01T04:58:03;9.90;;;8.20;;
17424;SDS011;8830;50.978;5.058;2023-03-01T05:00:30;9.07;;;8.17;;
17424;SDS011;8830;50.978;5.058;2023-03-01T05:02:58;13.83;;;9.23;;
17424;SDS011;8830;50.978;5.058;2023-03-01T05:05:27;11.20;;;9.87;;
17424;SDS011;8830;50.978;5.058;2023-03-01T05:07:56;11.13;;;9.60;;
17424;SDS011;8830;50.978;5.058;2023-03-01T05:10:25;11.40;;;9.57;;
17424;SDS011;8830;50.978;5.058;2023-03-01T05:12:54;10.53;;;9.30;;
17424;SDS011;8830;50.978;5.058;2023-03-01T05:15:23;12.30;;;9.00;;
17424;SDS011;8830;50.978;5.058;2023-03-01T05:17:51;10.37;;;9.43;;
17424;SDS011;8830;50.978;5.058;2023-03-01T05:20:19;10.20;;;9.20;;
17424;SDS011;8830;50.978;5.058;2023-03-01T05:22:48;10.63;;;9.57;;
17424;SDS011;8830;50.978;5.058;2023-03-01T05:25:15;11.07;;;9.30;;
17424;SDS011;8830;50.978;5.058;2023-03-01T05:27:44;10.10;;;9.17;;
17424;SDS011;8830;50.978;5.058;2023-03-01T05:30:11;10.57;;;9.57;;
17424;SDS011;8830;50.978;5.058;2023-03-01T05:32:44;10.50;;;9.50;;
17424;SDS011;8830;50.978;5.058;2023-03-01T05:35:20;12.73;;;9.63;;
17424;SDS011;8830;50.978;5.058;2023-03-01T05:37:48;10.07;;;9.17;;
17424;SDS011;8830;50.978;5.058;2023-03-01T05:40:16;11.03;;;9.03;;
17424;SDS011;8830;50.978;5.058;2023-03-01T05:42:45;9.60;;;8.53;;
17424;SDS011;8830;50.978;5.058;2023-03-01T05:45:14;12.27;;;9.70;;
17424;SDS011;8830;50.978;5.058;2023-03-01T05:47:44;13.67;;;9.33;;
17424;SDS011;8830;50.978;5.058;2023-03-01T05:50:13;12.00;;;9.50;;
17424;SDS011;8830;50.978;5.058;2023-03-01T05:52:46;16.30;;;9.77;;
17424;SDS011;8830;50.978;5.058;2023-03-01T05:55:14;10.97;;;9.03;;
17424;SDS011;8830;50.978;5.058;2023-03-01T05:57:41;10.50;;;8.57;;
17424;SDS011;8830;50.978;5.058;2023-03-01T06:00:08;12.70;;;9.70;;
17424;SDS011;8830;50.978;5.058;2023-03-01T06:02:37;13.70;;;10.20;;
17424;SDS011;8830;50.978;5.058;2023-03-01T06:05:06;12.07;;;9.67;;
17424;SDS011;8830;50.978;5.058;2023-03-01T06:07:34;11.33;;;9.80;;
17424;SDS011;8830;50.978;5.058;2023-03-01T06:10:01;11.43;;;9.57;;
17424;SDS011;8830;50.978;5.058;2023-03-01T06:12:30;10.23;;;9.27;;
17424;SDS011;8830;50.978;5.058;2023-03-01T06:14:57;9.87;;;8.97;;
17424;SDS011;8830;50.978;5.058;2023-03-01T06:17:25;10.80;;;9.67;;
17424;SDS011;8830;50.978;5.058;2023-03-01T06:19:52;14.10;;;9.90;;
17424;SDS011;8830;50.978;5.058;2023-03-01T06:22:20;9.83;;;8.77;;
17424;SDS011;8830;50.978;5.058;2023-03-01T06:24:47;11.20;;;8.90;;
17424;SDS011;8830;50.978;5.058;2023-03-01T06:27:14;16.17;;;9.53;;
17424;SDS011;8830;50.978;5.058;2023-03-01T06:29:41;13.50;;;10.00;;
17424;SDS011;8830;50.978;5.058;2023-03-01T06:32:09;10.53;;;8.87;;
17424;SDS011;8830;50.978;5.058;2023-03-01T06:34:36;9.80;;;8.80;;
17424;SDS011;8830;50.978;5.058;2023-03-01T06:37:04;11.77;;;8.70;;
17424;SDS011;8830;50.978;5.058;2023-03-01T06:39:32;10.17;;;9.17;;
17424;SDS011;8830;50.978;5.058;2023-03-01T06:41:59;12.67;;;9.30;;
17424;SDS011;8830;50.978;5.058;2023-03-01T06:44:26;10.03;;;9.03;;
17424;SDS011;8830;50.978;5.058;2023-03-01T06:46:53;9.90;;;9.00;;
17424;SDS011;8830;50.978;5.058;2023-03-01T06:49:21;11.33;;;8.20;;
17424;SDS011;8830;50.978;5.058;2023-03-01T06:51:48;13.37;;;9.27;;
17424;SDS011;8830;50.978;5.058;2023-03-01T06:54:15;9.47;;;8.23;;
17424;SDS011;8830;50.978;5.058;2023-03-01T06:56:44;12.40;;;8.90;;
17424;SDS011;8830;50.978;5.058;2023-03-01T06:59:12;8.60;;;7.77;;
17424;SDS011;8830;50.978;5.058;2023-03-01T07:01:39;9.53;;;8.57;;
17424;SDS011;8830;50.978;5.058;2023-03-01T07:04:07;9.37;;;8.23;;
17424;SDS011;8830;50.978;5.058;2023-03-01T07:06:34;12.53;;;9.00;;
17424;SDS011;8830;50.978;5.058;2023-03-01T07:09:01;10.03;;;8.43;;
17424;SDS011;8830;50.978;5.058;2023-03-01T07:11:28;8.80;;;7.83;;
17424;SDS011;8830;50.978;5.058;2023-03-01T07:13:57;8.87;;;8.07;;
17424;SDS011;8830;50.978;5.058;2023-03-01T07:16:25;9.07;;;7.23;;
17424;SDS011;8830;50.978;5.058;2023-03-01T07:18:52;8.47;;;7.00;;
17424;SDS011;8830;50.978;5.058;2023-03-01T07:21:18;8.10;;;7.30;;
17424;SDS011;8830;50.978;5.058;2023-03-01T07:23:46;8.00;;;6.87;;
17424;SDS011;8830;50.978;5.058;2023-03-01T07:26:13;8.20;;;7.40;;
17424;SDS011;8830;50.978;5.058;2023-03-01T07:28:41;7.00;;;6.30;;
17424;SDS011;8830;50.978;5.058;2023-03-01T07:31:10;7.80;;;6.60;;
17424;SDS011;8830;50.978;5.058;2023-03-01T07:33:36;6.60;;;6.10;;
17424;SDS011;8830;50.978;5.058;2023-03-01T07:36:04;8.23;;;7.50;;
17424;SDS011;8830;50.978;5.058;2023-03-01T07:38:33;7.67;;;7.00;;
17424;SDS011;8830;50.978;5.058;2023-03-01T07:41:02;7.67;;;6.93;;
17424;SDS011;8830;50.978;5.058;2023-03-01T07:43:30;8.03;;;7.33;;
17424;SDS011;8830;50.978;5.058;2023-03-01T07:45:58;7.90;;;7.20;;
17424;SDS011;8830;50.978;5.058;2023-03-01T07:48:27;9.13;;;7.33;;
17424;SDS011;8830;50.978;5.058;2023-03-01T07:50:54;7.83;;;7.23;;
17424;SDS011;8830;50.978;5.058;2023-03-01T07:53:23;7.47;;;6.87;;
17424;SDS011;8830;50.978;5.058;2023-03-01T07:55:59;6.67;;;6.07;;
17424;SDS011;8830;50.978;5.058;2023-03-01T07:58:27;7.37;;;6.77;;
17424;SDS011;8830;50.978;5.058;2023-03-01T08:00:54;7.47;;;6.67;;
17424;SDS011;8830;50.978;5.058;2023-03-01T08:03:21;7.63;;;6.60;;
17424;SDS011;8830;50.978;5.058;2023-03-01T08:05:49;7.47;;;6.83;;
17424;SDS011;8830;50.978;5.058;2023-03-01T08:08:17;8.43;;;7.03;;
17424;SDS011;8830;50.978;5.058;2023-03-01T08:10:47;7.70;;;6.53;;
17424;SDS011;8830;50.978;5.058;2023-03-01T08:13:14;7.90;;;7.20;;
17424;SDS011;8830;50.978;5.058;2023-03-01T08:15:41;8.10;;;7.30;;
17424;SDS011;8830;50.978;5.058;2023-03-01T08:18:08;8.20;;;7.40;;
17424;SDS011;8830;50.978;5.058;2023-03-01T08:20:35;7.53;;;6.93;;
17424;SDS011;8830;50.978;5.058;2023-03-01T08:23:03;10.20;;;7.37;;
17424;SDS011;8830;50.978;5.058;2023-03-01T08:25:30;8.43;;;7.60;;
17424;SDS011;8830;50.978;5.058;2023-03-01T08:27:58;7.67;;;6.97;;
17424;SDS011;8830;50.978;5.058;2023-03-01T08:30:25;7.93;;;7.03;;
17424;SDS011;8830;50.978;5.058;2023-03-01T08:32:52;8.33;;;7.53;;
17424;SDS011;8830;50.978;5.058;2023-03-01T08:35:19;9.73;;;7.37;;
17424;SDS011;8830;50.978;5.058;2023-03-01T08:37:46;8.40;;;7.40;;
17424;SDS011;8830;50.978;5.058;2023-03-01T08:40:16;8.73;;;8.00;;
17424;SDS011;8830;50.978;5.058;2023-03-01T08:42:44;8.77;;;7.87;;
17424;SDS011;8830;50.978;5.058;2023-03-01T08:45:11;13.53;;;7.63;;
17424;SDS011;8830;50.978;5.058;2023-03-01T08:47:39;8.43;;;7.63;;
17424;SDS011;8830;50.978;5.058;2023-03-01T08:50:06;16.17;;;8.50;;
17424;SDS011;8830;50.978;5.058;2023-03-01T08:52:34;8.93;;;8.03;;
17424;SDS011;8830;50.978;5.058;2023-03-01T08:55:01;10.53;;;8.10;;
17424;SDS011;8830;50.978;5.058;2023-03-01T08:57:30;15.83;;;9.30;;
17424;SDS011;8830;50.978;5.058;2023-03-01T08:59:57;9.20;;;8.33;;
17424;SDS011;8830;50.978;5.058;2023-03-01T09:02:24;8.77;;;7.97;;
17424;SDS011;8830;50.978;5.058;2023-03-01T09:04:52;8.43;;;7.73;;
17424;SDS011;8830;50.978;5.058;2023-03-01T09:07:19;9.47;;;8.33;;
17424;SDS011;8830;50.978;5.058;2023-03-01T09:09:46;9.40;;;8.40;;
17424;SDS011;8830;50.978;5.058;2023-03-01T09:12:13;11.53;;;8.60;;
17424;SDS011;8830;50.978;5.058;2023-03-01T09:14:41;9.77;;;8.10;;
17424;SDS011;8830;50.978;5.058;2023-03-01T09:17:08;8.83;;;7.93;;
17424;SDS011;8830;50.978;5.058;2023-03-01T09:19:35;9.17;;;8.37;;
17424;SDS011;8830;50.978;5.058;2023-03-01T09:22:02;9.37;;;8.47;;
17424;SDS011;8830;50.978;5.058;2023-03-01T09:24:29;10.13;;;8.50;;
17424;SDS011;8830;50.978;5.058;2023-03-01T09:26:56;8.83;;;7.93;;
17424;SDS011;8830;50.978;5.058;2023-03-01T09:29:23;10.33;;;8.47;;
17424;SDS011;8830;50.978;5.058;2023-03-01T09:31:52;9.30;;;8.40;;
17424;SDS011;8830;50.978;5.058;2023-03-01T09:34:20;10.47;;;9.00;;
17424;SDS011;8830;50.978;5.058;2023-03-01T09:36:48;10.00;;;8.87;;
17424;SDS011;8830;50.978;5.058;2023-03-01T09:39:16;10.33;;;8.20;;
17424;SDS011;8830;50.978;5.058;2023-03-01T09:41:45;9.83;;;8.90;;
17424;SDS011;8830;50.978;5.058;2023-03-01T09:44:18;9.87;;;8.47;;
17424;SDS011;8830;50.978;5.058;2023-03-01T09:46:55;10.57;;;8.33;;
17424;SDS011;8830;50.978;5.058;2023-03-01T09:49:24;11.50;;;10.40;;
17424;SDS011;8830;50.978;5.058;2023-03-01T09:51:57;10.07;;;8.73;;
17424;SDS011;8830;50.978;5.058;2023-03-01T09:54:26;10.33;;;9.23;;
17424;SDS011;8830;50.978;5.058;2023-03-01T09:57:06;11.77;;;8.83;;
17424;SDS011;8830;50.978;5.058;2023-03-01T09:59:47;10.37;;;9.37;;
17424;SDS011;8830;50.978;5.058;2023-03-01T10:02:26;9.60;;;8.70;;
17424;SDS011;8830;50.978;5.058;2023-03-01T10:05:03;8.73;;;7.77;;
17424;SDS011;8830;50.978;5.058;2023-03-01T10:07:39;9.93;;;8.93;;
17424;SDS011;8830;50.978;5.058;2023-03-01T10:10:16;10.23;;;9.13;;
17424;SDS011;8830;50.978;5.058;2023-03-01T10:12:52;10.17;;;9.17;;
17424;SDS011;8830;50.978;5.058;2023-03-01T10:15:22;9.53;;;8.70;;
17424;SDS011;8830;50.978;5.058;2023-03-01T10:18:00;10.63;;;8.90;;
17424;SDS011;8830;50.978;5.058;2023-03-01T10:20:33;14.17;;;9.30;;
17424;SDS011;8830;50.978;5.058;2023-03-01T10:23:08;9.63;;;8.33;;
17424;SDS011;8830;50.978;5.058;2023-03-01T10:25:41;15.33;;;9.33;;
17424;SDS011;8830;50.978;5.058;2023-03-01T10:28:16;9.90;;;8.90;;
17424;SDS011;8830;50.978;5.058;2023-03-01T10:30:45;9.67;;;8.80;;
17424;SDS011;8830;50.978;5.058;2023-03-01T10:33:16;10.33;;;9.20;;
17424;SDS011;8830;50.978;5.058;2023-03-01T10:35:46;11.73;;;9.17;;
17424;SDS011;8830;50.978;5.058;2023-03-01T10:38:13;10.13;;;9.17;;
17424;SDS011;8830;50.978;5.058;2023-03-01T10:40:52;14.07;;;9.27;;
17424;SDS011;8830;50.978;5.058;2023-03-01T10:43:22;10.10;;;8.97;;
17424;SDS011;8830;50.978;5.058;2023-03-01T10:45:50;10.00;;;8.90;;
17424;SDS011;8830;50.978;5.058;2023-03-01T10:48:20;10.07;;;9.17;;
17424;SDS011;8830;50.978;5.058;2023-03-01T10:50:51;9.67;;;8.23;;
17424;SDS011;8830;50.978;5.058;2023-03-01T10:53:32;10.00;;;9.00;;
17424;SDS011;8830;50.978;5.058;2023-03-01T10:56:01;18.07;;;8.50;;
17424;SDS011;8830;50.978;5.058;2023-03-01T10:58:31;9.93;;;8.93;;
17424;SDS011;8830;50.978;5.058;2023-03-01T11:01:02;10.10;;;8.83;;
17424;SDS011;8830;50.978;5.058;2023-03-01T11:03:32;10.03;;;8.93;;
17424;SDS011;8830;50.978;5.058;2023-03-01T11:06:05;10.13;;;8.23;;
17424;SDS011;8830;50.978;5.058;2023-03-01T11:08:46;11.37;;;9.60;;
17424;SDS011;8830;50.978;5.058;2023-03-01T11:11:32;10.37;;;9.27;;
17424;SDS011;8830;50.978;5.058;2023-03-01T11:14:00;9.90;;;8.57;;
17424;SDS011;8830;50.978;5.058;2023-03-01T11:16:34;9.40;;;8.57;;
17424;SDS011;8830;50.978;5.058;2023-03-01T11:19:16;12.37;;;8.93;;
17424;SDS011;8830;50.978;5.058;2023-03-01T11:21:56;9.93;;;8.93;;
17424;SDS011;8830;50.978;5.058;2023-03-01T11:24:30;9.77;;;8.70;;
17424;SDS011;8830;50.978;5.058;2023-03-01T11:27:03;10.00;;;9.00;;
17424;SDS011;8830;50.978;5.058;2023-03-01T11:29:36;11.53;;;8.57;;
17424;SDS011;8830;50.978;5.058;2023-03-01T11:32:07;9.20;;;7.80;;
17424;SDS011;8830;50.978;5.058;2023-03-01T11:34:42;8.80;;;8.00;;
17424;SDS011;8830;50.978;5.058;2023-03-01T11:37:16;9.87;;;8.63;;
17424;SDS011;8830;50.978;5.058;2023-03-01T11:39:52;8.80;;;7.90;;
17424;SDS011;8830;50.978;5.058;2023-03-01T11:42:25;11.57;;;7.97;;
17424;SDS011;8830;50.978;5.058;2023-03-01T11:45:02;9.03;;;8.10;;
17424;SDS011;8830;50.978;5.058;2023-03-01T11:47:33;10.10;;;8.63;;
17424;SDS011;8830;50.978;5.058;2023-03-01T11:50:33;9.43;;;8.27;;
17424;SDS011;8830;50.978;5.058;2023-03-01T11:53:13;10.83;;;8.50;;
17424;SDS011;8830;50.978;5.058;2023-03-01T11:56:06;9.00;;;8.10;;
17424;SDS011;8830;50.978;5.058;2023-03-01T11:58:45;10.70;;;8.30;;
17424;SDS011;8830;50.978;5.058;2023-03-01T12:01:28;12.97;;;8.57;;
17424;SDS011;8830;50.978;5.058;2023-03-01T12:04:16;10.57;;;8.60;;
17424;SDS011;8830;50.978;5.058;2023-03-01T12:06:59;9.60;;;8.10;;
17424;SDS011;8830;50.978;5.058;2023-03-01T12:09:38;11.70;;;8.07;;
17424;SDS011;8830;50.978;5.058;2023-03-01T12:12:24;8.93;;;8.13;;
17424;SDS011;8830;50.978;5.058;2023-03-01T12:15:09;13.33;;;8.10;;
17424;SDS011;8830;50.978;5.058;2023-03-01T12:17:57;9.03;;;7.40;;
17424;SDS011;8830;50.978;5.058;2023-03-01T12:20:46;9.40;;;7.77;;
17424;SDS011;8830;50.978;5.058;2023-03-01T12:23:28;9.83;;;8.23;;
17424;SDS011;8830;50.978;5.058;2023-03-01T12:26:10;8.43;;;7.60;;
17424;SDS011;8830;50.978;5.058;2023-03-01T12:28:49;9.77;;;7.40;;
17424;SDS011;8830;50.978;5.058;2023-03-01T12:34:22;13.30;;;7.47;;
17424;SDS011;8830;50.978;5.058;2023-03-01T12:37:10;8.97;;;7.97;;
17424;SDS011;8830;50.978;5.058;2023-03-01T12:39:54;10.13;;;7.93;;
17424;SDS011;8830;50.978;5.058;2023-03-01T12:42:39;9.13;;;8.23;;
17424;SDS011;8830;50.978;5.058;2023-03-01T12:45:26;8.27;;;7.27;;
17424;SDS011;8830;50.978;5.058;2023-03-01T12:48:08;9.03;;;8.13;;
17424;SDS011;8830;50.978;5.058;2023-03-01T12:50:55;8.20;;;7.40;;
17424;SDS011;8830;50.978;5.058;2023-03-01T12:53:27;7.83;;;7.03;;
17424;SDS011;8830;50.978;5.058;2023-03-01T12:56:00;10.57;;;7.60;;
17424;SDS011;8830;50.978;5.058;2023-03-01T12:58:32;8.70;;;7.87;;
17424;SDS011;8830;50.978;5.058;2023-03-01T13:01:04;10.57;;;8.30;;
17424;SDS011;8830;50.978;5.058;2023-03-01T13:03:47;11.50;;;8.77;;
17424;SDS011;8830;50.978;5.058;2023-03-01T13:06:53;8.47;;;7.67;;
17424;SDS011;8830;50.978;5.058;2023-03-01T13:09:27;8.47;;;7.67;;
17424;SDS011;8830;50.978;5.058;2023-03-01T13:12:02;8.07;;;7.27;;
17424;SDS011;8830;50.978;5.058;2023-03-01T13:14:35;8.90;;;8.10;;
17424;SDS011;8830;50.978;5.058;2023-03-01T13:17:03;12.57;;;8.80;;
17424;SDS011;8830;50.978;5.058;2023-03-01T13:19:30;10.07;;;8.73;;
17424;SDS011;8830;50.978;5.058;2023-03-01T13:22:00;9.67;;;8.07;;
17424;SDS011;8830;50.978;5.058;2023-03-01T13:27:48;9.77;;;8.83;;
17424;SDS011;8830;50.978;5.058;2023-03-01T13:36:10;15.23;;;8.63;;
17424;SDS011;8830;50.978;5.058;2023-03-01T13:39:00;20.07;;;9.83;;
17424;SDS011;8830;50.978;5.058;2023-03-01T13:44:20;12.37;;;8.30;;
17424;SDS011;8830;50.978;5.058;2023-03-01T13:46:51;8.70;;;7.90;;
17424;SDS011;8830;50.978;5.058;2023-03-01T13:49:21;12.47;;;8.17;;
17424;SDS011;8830;50.978;5.058;2023-03-01T13:51:50;10.73;;;8.40;;
17424;SDS011;8830;50.978;5.058;2023-03-01T13:54:23;11.43;;;8.53;;
17424;SDS011;8830;50.978;5.058;2023-03-01T13:56:52;8.70;;;7.37;;
17424;SDS011;8830;50.978;5.058;2023-03-01T13:59:20;8.57;;;7.77;;
17424;SDS011;8830;50.978;5.058;2023-03-01T14:01:51;9.07;;;8.17;;
17424;SDS011;8830;50.978;5.058;2023-03-01T14:04:20;9.53;;;8.63;;
17424;SDS011;8830;50.978;5.058;2023-03-01T14:06:49;8.70;;;7.83;;
17424;SDS011;8830;50.978;5.058;2023-03-01T14:09:17;9.20;;;8.27;;
17424;SDS011;8830;50.978;5.058;2023-03-01T14:12:12;12.50;;;8.60;;
17424;SDS011;8830;50.978;5.058;2023-03-01T14:14:52;9.23;;;8.17;;
17424;SDS011;8830;50.978;5.058;2023-03-01T14:17:38;9.77;;;8.00;;
17424;SDS011;8830;50.978;5.058;2023-03-01T14:20:17;8.97;;;7.73;;
17424;SDS011;8830;50.978;5.058;2023-03-01T14:22:45;11.80;;;8.67;;
17424;SDS011;8830;50.978;5.058;2023-03-01T14:25:19;10.27;;;9.27;;
17424;SDS011;8830;50.978;5.058;2023-03-01T14:27:51;11.50;;;9.53;;
17424;SDS011;8830;50.978;5.058;2023-03-01T14:30:19;9.23;;;8.30;;
17424;SDS011;8830;50.978;5.058;2023-03-01T14:32:54;8.83;;;7.80;;
17424;SDS011;8830;50.978;5.058;2023-03-01T14:35:26;9.00;;;8.10;;
17424;SDS011;8830;50.978;5.058;2023-03-01T14:37:54;10.93;;;7.93;;
17424;SDS011;8830;50.978;5.058;2023-03-01T14:40:26;9.60;;;6.60;;
17424;SDS011;8830;50.978;5.058;2023-03-01T14:42:53;8.07;;;7.10;;
17424;SDS011;8830;50.978;5.058;2023-03-01T14:45:24;7.23;;;6.10;;
17424;SDS011;8830;50.978;5.058;2023-03-01T14:47:54;8.40;;;7.53;;
17424;SDS011;8830;50.978;5.058;2023-03-01T14:50:23;7.03;;;6.33;;
17424;SDS011;8830;50.978;5.058;2023-03-01T14:52:54;6.87;;;6.27;;
17424;SDS011;8830;50.978;5.058;2023-03-01T14:55:27;10.63;;;6.60;;
17424;SDS011;8830;50.978;5.058;2023-03-01T14:57:57;7.23;;;6.07;;
17424;SDS011;8830;50.978;5.058;2023-03-01T15:00:25;7.70;;;6.83;;
17424;SDS011;8830;50.978;5.058;2023-03-01T15:02:54;8.67;;;7.33;;
17424;SDS011;8830;50.978;5.058;2023-03-01T15:05:24;6.47;;;5.87;;
17424;SDS011;8830;50.978;5.058;2023-03-01T15:07:54;7.53;;;6.77;;
17424;SDS011;8830;50.978;5.058;2023-03-01T15:10:22;7.63;;;6.93;;
17424;SDS011;8830;50.978;5.058;2023-03-01T15:12:51;12.53;;;7.07;;
17424;SDS011;8830;50.978;5.058;2023-03-01T15:15:20;7.37;;;6.67;;
17424;SDS011;8830;50.978;5.058;2023-03-01T15:17:50;7.77;;;6.90;;
17424;SDS011;8830;50.978;5.058;2023-03-01T15:20:22;7.73;;;6.27;;
17424;SDS011;8830;50.978;5.058;2023-03-01T15:22:52;7.40;;;6.70;;
17424;SDS011;8830;50.978;5.058;2023-03-01T15:25:21;7.93;;;6.40;;
17424;SDS011;8830;50.978;5.058;2023-03-01T15:27:55;6.33;;;5.73;;
17424;SDS011;8830;50.978;5.058;2023-03-01T15:30:25;9.20;;;6.03;;
17424;SDS011;8830;50.978;5.058;2023-03-01T15:35:45;6.23;;;5.73;;